Hamshire, Texas
Current Conditions -  °F | °C
As of 9:15 AM on Monday 24 Nov 2014 (Local Time) from KBMT Reporting Station
Clear Clear  
Wind Chill: 54°   Ceiling: Unl
Heat Index: 54°   Visibility: 10mi
Dew Point: 41°   Wind: 17mph
Humidity: 63%   Direction: 360°N
Pressure: 30.01"   Gusts: 24mph
Location:  29.86°N, 94.31°W
Report Text: KBMT 241515Z AUTO 36015G21KT 10SM CLR 12/05 A3001 RMK AO2 T01200051
Loading
Personal Weather Stations






























Interactive Weather Map New forecast layout! Learn more

10-Day Weather Forecast

Advertisements
Track Severe Weather on mobile